sensor_id;sensor_type;location;lat;lon;timestamp;P1;durP1;ratioP1;P2;durP2;ratioP2
57889;SDS011;43707;50.184;18.966;2023-08-21T00:01:01;12.00;;;10.40;;
57889;SDS011;43707;50.184;18.966;2023-08-21T00:03:26;16.00;;;12.20;;
57889;SDS011;43707;50.184;18.966;2023-08-21T00:05:52;13.10;;;11.50;;
57889;SDS011;43707;50.184;18.966;2023-08-21T00:08:17;19.20;;;11.60;;
57889;SDS011;43707;50.184;18.966;2023-08-21T00:10:43;19.80;;;13.80;;
57889;SDS011;43707;50.184;18.966;2023-08-21T00:13:08;16.50;;;12.80;;
57889;SDS011;43707;50.184;18.966;2023-08-21T00:15:34;21.30;;;13.20;;
57889;SDS011;43707;50.184;18.966;2023-08-21T00:17:59;13.30;;;11.80;;
57889;SDS011;43707;50.184;18.966;2023-08-21T00:20:26;14.70;;;11.00;;
57889;SDS011;43707;50.184;18.966;2023-08-21T00:22:51;12.80;;;11.50;;
57889;SDS011;43707;50.184;18.966;2023-08-21T00:25:17;12.00;;;10.70;;
57889;SDS011;43707;50.184;18.966;2023-08-21T00:27:42;13.10;;;11.40;;
57889;SDS011;43707;50.184;18.966;2023-08-21T00:30:08;13.10;;;10.50;;
57889;SDS011;43707;50.184;18.966;2023-08-21T00:32:34;11.60;;;10.50;;
57889;SDS011;43707;50.184;18.966;2023-08-21T00:35:00;11.50;;;10.20;;
57889;SDS011;43707;50.184;18.966;2023-08-21T00:37:25;12.70;;;10.70;;
57889;SDS011;43707;50.184;18.966;2023-08-21T00:39:50;17.00;;;11.80;;
57889;SDS011;43707;50.184;18.966;2023-08-21T00:42:16;12.90;;;11.60;;
57889;SDS011;43707;50.184;18.966;2023-08-21T00:44:41;12.50;;;11.30;;
57889;SDS011;43707;50.184;18.966;2023-08-21T00:47:07;13.50;;;11.30;;
57889;SDS011;43707;50.184;18.966;2023-08-21T00:49:32;13.20;;;10.70;;
57889;SDS011;43707;50.184;18.966;2023-08-21T00:51:58;14.40;;;10.80;;
57889;SDS011;43707;50.184;18.966;2023-08-21T00:54:24;15.80;;;11.80;;
57889;SDS011;43707;50.184;18.966;2023-08-21T00:56:50;13.20;;;11.90;;
57889;SDS011;43707;50.184;18.966;2023-08-21T00:59:17;12.10;;;10.80;;
57889;SDS011;43707;50.184;18.966;2023-08-21T01:01:43;12.10;;;10.90;;
57889;SDS011;43707;50.184;18.966;2023-08-21T01:04:09;11.60;;;10.50;;
57889;SDS011;43707;50.184;18.966;2023-08-21T01:06:35;13.00;;;11.70;;
57889;SDS011;43707;50.184;18.966;2023-08-21T01:09:07;11.20;;;10.20;;
57889;SDS011;43707;50.184;18.966;2023-08-21T01:14:37;13.30;;;12.00;;
57889;SDS011;43707;50.184;18.966;2023-08-21T01:17:07;11.50;;;10.30;;
57889;SDS011;43707;50.184;18.966;2023-08-21T01:19:41;11.70;;;10.60;;
57889;SDS011;43707;50.184;18.966;2023-08-21T01:22:08;11.30;;;10.00;;
57889;SDS011;43707;50.184;18.966;2023-08-21T01:24:33;12.70;;;10.60;;
57889;SDS011;43707;50.184;18.966;2023-08-21T01:26:59;11.80;;;10.50;;
57889;SDS011;43707;50.184;18.966;2023-08-21T01:29:25;12.00;;;9.90;;
57889;SDS011;43707;50.184;18.966;2023-08-21T01:31:52;11.40;;;10.30;;
57889;SDS011;43707;50.184;18.966;2023-08-21T01:34:25;11.20;;;10.20;;
57889;SDS011;43707;50.184;18.966;2023-08-21T01:36:51;11.90;;;10.90;;
57889;SDS011;43707;50.184;18.966;2023-08-21T01:39:17;11.20;;;10.20;;
57889;SDS011;43707;50.184;18.966;2023-08-21T01:41:43;10.80;;;9.60;;
57889;SDS011;43707;50.184;18.966;2023-08-21T01:44:08;13.80;;;10.80;;
57889;SDS011;43707;50.184;18.966;2023-08-21T01:46:34;11.70;;;10.50;;
57889;SDS011;43707;50.184;18.966;2023-08-21T01:48:59;10.90;;;9.70;;
57889;SDS011;43707;50.184;18.966;2023-08-21T01:51:24;13.80;;;10.80;;
57889;SDS011;43707;50.184;18.966;2023-08-21T01:53:50;11.30;;;10.10;;
57889;SDS011;43707;50.184;18.966;2023-08-21T01:56:15;11.30;;;10.20;;
57889;SDS011;43707;50.184;18.966;2023-08-21T01:58:40;12.20;;;10.90;;
57889;SDS011;43707;50.184;18.966;2023-08-21T02:01:06;13.50;;;11.10;;
57889;SDS011;43707;50.184;18.966;2023-08-21T02:03:31;15.10;;;11.90;;
57889;SDS011;43707;50.184;18.966;2023-08-21T02:05:57;11.80;;;10.60;;
57889;SDS011;43707;50.184;18.966;2023-08-21T02:08:30;13.30;;;12.00;;
57889;SDS011;43707;50.184;18.966;2023-08-21T02:10:57;12.40;;;10.90;;
57889;SDS011;43707;50.184;18.966;2023-08-21T02:13:23;12.10;;;10.30;;
57889;SDS011;43707;50.184;18.966;2023-08-21T02:15:48;11.20;;;10.10;;
57889;SDS011;43707;50.184;18.966;2023-08-21T02:18:14;11.60;;;9.80;;
57889;SDS011;43707;50.184;18.966;2023-08-21T02:20:40;13.00;;;10.70;;
57889;SDS011;43707;50.184;18.966;2023-08-21T02:23:05;12.30;;;11.10;;
57889;SDS011;43707;50.184;18.966;2023-08-21T02:25:31;11.30;;;10.10;;
57889;SDS011;43707;50.184;18.966;2023-08-21T02:27:57;11.80;;;10.40;;
57889;SDS011;43707;50.184;18.966;2023-08-21T02:30:22;14.60;;;11.40;;
57889;SDS011;43707;50.184;18.966;2023-08-21T02:32:51;12.70;;;11.30;;
57889;SDS011;43707;50.184;18.966;2023-08-21T02:35:20;13.40;;;11.90;;
57889;SDS011;43707;50.184;18.966;2023-08-21T02:37:45;13.60;;;12.30;;
57889;SDS011;43707;50.184;18.966;2023-08-21T02:40:11;14.00;;;12.80;;
57889;SDS011;43707;50.184;18.966;2023-08-21T02:42:37;14.90;;;12.00;;
57889;SDS011;43707;50.184;18.966;2023-08-21T02:45:02;14.60;;;11.90;;
57889;SDS011;43707;50.184;18.966;2023-08-21T02:47:37;13.70;;;12.20;;
57889;SDS011;43707;50.184;18.966;2023-08-21T02:50:04;14.60;;;12.70;;
57889;SDS011;43707;50.184;18.966;2023-08-21T02:52:30;15.80;;;12.30;;
57889;SDS011;43707;50.184;18.966;2023-08-21T02:54:56;13.10;;;10.70;;
57889;SDS011;43707;50.184;18.966;2023-08-21T02:57:22;16.80;;;11.50;;
57889;SDS011;43707;50.184;18.966;2023-08-21T02:59:48;13.50;;;12.20;;
57889;SDS011;43707;50.184;18.966;2023-08-21T03:02:14;12.90;;;11.70;;
57889;SDS011;43707;50.184;18.966;2023-08-21T03:04:39;13.80;;;12.40;;
57889;SDS011;43707;50.184;18.966;2023-08-21T03:07:04;15.00;;;12.40;;
57889;SDS011;43707;50.184;18.966;2023-08-21T03:09:30;15.80;;;12.20;;
57889;SDS011;43707;50.184;18.966;2023-08-21T03:11:55;15.10;;;12.00;;
57889;SDS011;43707;50.184;18.966;2023-08-21T03:14:21;16.80;;;11.00;;
57889;SDS011;43707;50.184;18.966;2023-08-21T03:16:46;16.90;;;11.70;;
57889;SDS011;43707;50.184;18.966;2023-08-21T03:19:12;13.20;;;10.90;;
57889;SDS011;43707;50.184;18.966;2023-08-21T03:21:37;16.80;;;11.40;;
57889;SDS011;43707;50.184;18.966;2023-08-21T03:24:02;13.00;;;11.70;;
57889;SDS011;43707;50.184;18.966;2023-08-21T03:26:28;12.60;;;11.30;;
57889;SDS011;43707;50.184;18.966;2023-08-21T03:28:53;17.40;;;11.40;;
57889;SDS011;43707;50.184;18.966;2023-08-21T03:31:19;13.30;;;12.00;;
57889;SDS011;43707;50.184;18.966;2023-08-21T03:33:44;14.40;;;12.20;;
57889;SDS011;43707;50.184;18.966;2023-08-21T03:36:10;13.00;;;11.80;;
57889;SDS011;43707;50.184;18.966;2023-08-21T03:38:35;12.80;;;11.60;;
57889;SDS011;43707;50.184;18.966;2023-08-21T03:41:01;17.80;;;13.60;;
57889;SDS011;43707;50.184;18.966;2023-08-21T03:43:27;13.40;;;12.00;;
57889;SDS011;43707;50.184;18.966;2023-08-21T03:45:52;13.90;;;12.20;;
57889;SDS011;43707;50.184;18.966;2023-08-21T03:48:18;18.30;;;13.30;;
57889;SDS011;43707;50.184;18.966;2023-08-21T03:50:43;14.20;;;12.80;;
57889;SDS011;43707;50.184;18.966;2023-08-21T03:53:08;14.70;;;13.20;;
57889;SDS011;43707;50.184;18.966;2023-08-21T03:55:34;15.50;;;13.70;;
57889;SDS011;43707;50.184;18.966;2023-08-21T03:57:59;16.00;;;13.70;;
57889;SDS011;43707;50.184;18.966;2023-08-21T04:00:25;15.80;;;13.90;;
57889;SDS011;43707;50.184;18.966;2023-08-21T04:02:51;16.10;;;14.50;;
57889;SDS011;43707;50.184;18.966;2023-08-21T04:05:16;18.00;;;13.30;;
57889;SDS011;43707;50.184;18.966;2023-08-21T04:07:41;18.50;;;13.30;;
57889;SDS011;43707;50.184;18.966;2023-08-21T04:10:07;15.30;;;12.50;;
57889;SDS011;43707;50.184;18.966;2023-08-21T04:12:32;14.70;;;12.70;;
57889;SDS011;43707;50.184;18.966;2023-08-21T04:14:58;21.80;;;13.30;;
57889;SDS011;43707;50.184;18.966;2023-08-21T04:17:23;15.30;;;13.30;;
57889;SDS011;43707;50.184;18.966;2023-08-21T04:19:49;17.40;;;13.70;;
57889;SDS011;43707;50.184;18.966;2023-08-21T04:22:15;16.00;;;13.50;;
57889;SDS011;43707;50.184;18.966;2023-08-21T04:24:41;14.30;;;12.50;;
57889;SDS011;43707;50.184;18.966;2023-08-21T04:27:07;18.60;;;14.10;;
57889;SDS011;43707;50.184;18.966;2023-08-21T04:29:32;14.90;;;13.20;;
57889;SDS011;43707;50.184;18.966;2023-08-21T04:31:58;17.50;;;14.40;;
57889;SDS011;43707;50.184;18.966;2023-08-21T04:34:23;14.60;;;11.70;;
57889;SDS011;43707;50.184;18.966;2023-08-21T04:36:48;16.50;;;12.70;;
57889;SDS011;43707;50.184;18.966;2023-08-21T04:39:14;13.60;;;12.10;;
57889;SDS011;43707;50.184;18.966;2023-08-21T04:41:40;16.20;;;13.00;;
57889;SDS011;43707;50.184;18.966;2023-08-21T04:44:06;14.90;;;13.30;;
57889;SDS011;43707;50.184;18.966;2023-08-21T04:46:32;14.80;;;13.20;;
57889;SDS011;43707;50.184;18.966;2023-08-21T04:48:57;13.70;;;12.30;;
57889;SDS011;43707;50.184;18.966;2023-08-21T04:51:23;16.00;;;12.80;;
57889;SDS011;43707;50.184;18.966;2023-08-21T04:53:48;14.90;;;12.30;;
57889;SDS011;43707;50.184;18.966;2023-08-21T04:56:13;15.00;;;12.20;;
57889;SDS011;43707;50.184;18.966;2023-08-21T04:58:39;15.50;;;12.90;;
57889;SDS011;43707;50.184;18.966;2023-08-21T05:01:04;11.90;;;10.80;;
57889;SDS011;43707;50.184;18.966;2023-08-21T05:03:30;12.20;;;10.80;;
57889;SDS011;43707;50.184;18.966;2023-08-21T05:05:55;11.90;;;10.40;;
57889;SDS011;43707;50.184;18.966;2023-08-21T05:08:25;12.80;;;10.80;;
57889;SDS011;43707;50.184;18.966;2023-08-21T05:10:55;12.00;;;10.80;;
57889;SDS011;43707;50.184;18.966;2023-08-21T05:13:21;15.50;;;11.80;;
57889;SDS011;43707;50.184;18.966;2023-08-21T05:15:51;13.20;;;11.30;;
57889;SDS011;43707;50.184;18.966;2023-08-21T05:18:18;14.50;;;11.40;;
57889;SDS011;43707;50.184;18.966;2023-08-21T05:20:43;16.30;;;12.10;;
57889;SDS011;43707;50.184;18.966;2023-08-21T05:23:09;13.10;;;11.80;;
57889;SDS011;43707;50.184;18.966;2023-08-21T05:25:34;18.50;;;12.50;;
57889;SDS011;43707;50.184;18.966;2023-08-21T05:27:59;13.70;;;12.20;;
57889;SDS011;43707;50.184;18.966;2023-08-21T05:30:25;15.60;;;12.70;;
57889;SDS011;43707;50.184;18.966;2023-08-21T05:32:50;11.70;;;10.50;;
57889;SDS011;43707;50.184;18.966;2023-08-21T05:35:16;12.90;;;11.40;;
57889;SDS011;43707;50.184;18.966;2023-08-21T05:37:42;14.60;;;13.00;;
57889;SDS011;43707;50.184;18.966;2023-08-21T05:40:07;11.50;;;10.40;;
57889;SDS011;43707;50.184;18.966;2023-08-21T05:42:33;11.20;;;10.20;;
57889;SDS011;43707;50.184;18.966;2023-08-21T05:44:58;15.80;;;11.50;;
57889;SDS011;43707;50.184;18.966;2023-08-21T05:47:24;13.00;;;10.20;;
57889;SDS011;43707;50.184;18.966;2023-08-21T05:49:50;7.70;;;6.60;;
57889;SDS011;43707;50.184;18.966;2023-08-21T05:52:15;12.50;;;10.30;;
57889;SDS011;43707;50.184;18.966;2023-08-21T05:54:41;11.40;;;10.30;;
57889;SDS011;43707;50.184;18.966;2023-08-21T05:57:06;7.50;;;6.70;;
57889;SDS011;43707;50.184;18.966;2023-08-21T05:59:32;9.40;;;8.40;;
57889;SDS011;43707;50.184;18.966;2023-08-21T06:01:58;7.90;;;6.50;;
57889;SDS011;43707;50.184;18.966;2023-08-21T06:04:23;6.30;;;5.50;;
57889;SDS011;43707;50.184;18.966;2023-08-21T06:06:49;4.90;;;4.30;;
57889;SDS011;43707;50.184;18.966;2023-08-21T06:09:15;4.10;;;3.30;;
57889;SDS011;43707;50.184;18.966;2023-08-21T06:11:42;3.80;;;3.50;;
57889;SDS011;43707;50.184;18.966;2023-08-21T06:14:08;5.40;;;4.20;;
57889;SDS011;43707;50.184;18.966;2023-08-21T06:16:33;8.50;;;6.30;;
57889;SDS011;43707;50.184;18.966;2023-08-21T06:18:59;6.20;;;5.60;;
57889;SDS011;43707;50.184;18.966;2023-08-21T06:21:24;7.60;;;7.00;;
57889;SDS011;43707;50.184;18.966;2023-08-21T06:23:49;4.20;;;3.80;;
57889;SDS011;43707;50.184;18.966;2023-08-21T06:26:15;12.60;;;7.90;;
57889;SDS011;43707;50.184;18.966;2023-08-21T06:28:41;13.10;;;8.60;;
57889;SDS011;43707;50.184;18.966;2023-08-21T06:31:08;14.30;;;8.00;;
57889;SDS011;43707;50.184;18.966;2023-08-21T06:33:33;10.20;;;7.90;;
57889;SDS011;43707;50.184;18.966;2023-08-21T06:35:59;5.40;;;4.90;;
57889;SDS011;43707;50.184;18.966;2023-08-21T06:38:24;10.50;;;3.60;;
57889;SDS011;43707;50.184;18.966;2023-08-21T06:40:49;4.00;;;3.60;;
57889;SDS011;43707;50.184;18.966;2023-08-21T06:43:16;6.50;;;5.60;;
57889;SDS011;43707;50.184;18.966;2023-08-21T06:45:42;7.70;;;3.60;;
57889;SDS011;43707;50.184;18.966;2023-08-21T06:48:07;3.30;;;3.00;;
57889;SDS011;43707;50.184;18.966;2023-08-21T06:50:33;4.80;;;4.40;;
57889;SDS011;43707;50.184;18.966;2023-08-21T06:52:58;6.60;;;6.00;;
57889;SDS011;43707;50.184;18.966;2023-08-21T06:55:23;10.70;;;5.80;;
57889;SDS011;43707;50.184;18.966;2023-08-21T06:57:49;7.30;;;6.40;;
57889;SDS011;43707;50.184;18.966;2023-08-21T07:00:14;4.10;;;3.60;;
57889;SDS011;43707;50.184;18.966;2023-08-21T07:02:40;7.50;;;6.80;;
57889;SDS011;43707;50.184;18.966;2023-08-21T07:05:06;15.70;;;6.40;;
57889;SDS011;43707;50.184;18.966;2023-08-21T07:07:33;8.90;;;7.30;;
57889;SDS011;43707;50.184;18.966;2023-08-21T07:09:58;10.60;;;6.80;;
57889;SDS011;43707;50.184;18.966;2023-08-21T07:12:24;5.70;;;5.10;;
57889;SDS011;43707;50.184;18.966;2023-08-21T07:14:49;6.00;;;5.20;;
57889;SDS011;43707;50.184;18.966;2023-08-21T07:17:15;5.90;;;5.40;;
57889;SDS011;43707;50.184;18.966;2023-08-21T07:19:40;6.50;;;5.90;;
57889;SDS011;43707;50.184;18.966;2023-08-21T07:22:05;6.90;;;6.30;;
57889;SDS011;43707;50.184;18.966;2023-08-21T07:24:31;7.60;;;6.10;;
57889;SDS011;43707;50.184;18.966;2023-08-21T07:26:56;8.90;;;7.30;;
57889;SDS011;43707;50.184;18.966;2023-08-21T07:29:21;7.10;;;6.40;;
57889;SDS011;43707;50.184;18.966;2023-08-21T07:31:47;9.20;;;7.40;;
57889;SDS011;43707;50.184;18.966;2023-08-21T07:34:12;12.00;;;10.30;;
57889;SDS011;43707;50.184;18.966;2023-08-21T07:36:37;13.50;;;10.60;;
57889;SDS011;43707;50.184;18.966;2023-08-21T07:39:03;9.90;;;8.70;;
57889;SDS011;43707;50.184;18.966;2023-08-21T07:41:28;11.40;;;9.30;;
57889;SDS011;43707;50.184;18.966;2023-08-21T07:43:54;6.70;;;6.00;;
57889;SDS011;43707;50.184;18.966;2023-08-21T07:46:21;7.20;;;4.80;;
57889;SDS011;43707;50.184;18.966;2023-08-21T07:48:46;4.40;;;4.00;;
57889;SDS011;43707;50.184;18.966;2023-08-21T07:51:11;4.10;;;3.80;;
57889;SDS011;43707;50.184;18.966;2023-08-21T07:53:37;3.60;;;3.30;;
57889;SDS011;43707;50.184;18.966;2023-08-21T07:56:03;2.90;;;2.60;;
57889;SDS011;43707;50.184;18.966;2023-08-21T07:58:32;2.50;;;2.30;;
57889;SDS011;43707;50.184;18.966;2023-08-21T08:00:58;2.50;;;2.20;;
57889;SDS011;43707;50.184;18.966;2023-08-21T08:03:24;4.00;;;2.70;;
57889;SDS011;43707;50.184;18.966;2023-08-21T08:05:50;6.00;;;5.40;;
57889;SDS011;43707;50.184;18.966;2023-08-21T08:08:18;7.90;;;7.10;;
57889;SDS011;43707;50.184;18.966;2023-08-21T08:10:44;5.90;;;5.40;;
57889;SDS011;43707;50.184;18.966;2023-08-21T08:13:09;8.50;;;7.30;;
57889;SDS011;43707;50.184;18.966;2023-08-21T08:15:35;9.80;;;8.10;;
57889;SDS011;43707;50.184;18.966;2023-08-21T08:18:01;8.50;;;6.20;;
57889;SDS011;43707;50.184;18.966;2023-08-21T08:20:28;7.40;;;5.70;;
57889;SDS011;43707;50.184;18.966;2023-08-21T08:22:53;8.80;;;5.80;;
57889;SDS011;43707;50.184;18.966;2023-08-21T08:25:19;4.90;;;4.40;;
57889;SDS011;43707;50.184;18.966;2023-08-21T08:27:44;3.70;;;3.30;;
57889;SDS011;43707;50.184;18.966;2023-08-21T08:30:10;3.30;;;3.00;;
57889;SDS011;43707;50.184;18.966;2023-08-21T08:32:36;6.40;;;2.80;;
57889;SDS011;43707;50.184;18.966;2023-08-21T08:35:01;2.60;;;1.90;;
57889;SDS011;43707;50.184;18.966;2023-08-21T08:37:27;3.50;;;2.00;;
57889;SDS011;43707;50.184;18.966;2023-08-21T08:39:52;1.90;;;1.70;;
57889;SDS011;43707;50.184;18.966;2023-08-21T08:42:17;1.30;;;1.20;;
57889;SDS011;43707;50.184;18.966;2023-08-21T08:44:43;1.20;;;1.10;;
57889;SDS011;43707;50.184;18.966;2023-08-21T08:47:11;3.30;;;1.40;;
57889;SDS011;43707;50.184;18.966;2023-08-21T08:49:37;3.30;;;1.40;;
57889;SDS011;43707;50.184;18.966;2023-08-21T08:52:03;7.60;;;1.40;;
57889;SDS011;43707;50.184;18.966;2023-08-21T08:54:29;2.70;;;1.60;;
57889;SDS011;43707;50.184;18.966;2023-08-21T08:56:55;2.00;;;1.40;;
57889;SDS011;43707;50.184;18.966;2023-08-21T08:59:20;1.80;;;1.60;;
57889;SDS011;43707;50.184;18.966;2023-08-21T09:01:46;1.60;;;1.50;;
57889;SDS011;43707;50.184;18.966;2023-08-21T09:04:11;1.30;;;1.20;;
57889;SDS011;43707;50.184;18.966;2023-08-21T09:06:37;1.50;;;1.40;;
57889;SDS011;43707;50.184;18.966;2023-08-21T09:09:03;2.00;;;1.80;;
57889;SDS011;43707;50.184;18.966;2023-08-21T09:11:29;1.20;;;1.10;;
57889;SDS011;43707;50.184;18.966;2023-08-21T09:13:55;3.00;;;1.50;;
57889;SDS011;43707;50.184;18.966;2023-08-21T09:16:21;2.00;;;1.60;;
57889;SDS011;43707;50.184;18.966;2023-08-21T09:18:48;2.20;;;1.40;;
57889;SDS011;43707;50.184;18.966;2023-08-21T09:21:18;1.30;;;1.20;;
57889;SDS011;43707;50.184;18.966;2023-08-21T09:23:44;1.00;;;0.90;;
57889;SDS011;43707;50.184;18.966;2023-08-21T09:26:11;1.60;;;1.30;;
57889;SDS011;43707;50.184;18.966;2023-08-21T09:28:46;1.30;;;1.20;;
57889;SDS011;43707;50.184;18.966;2023-08-21T09:31:15;2.40;;;0.90;;
57889;SDS011;43707;50.184;18.966;2023-08-21T09:33:43;0.90;;;0.90;;
57889;SDS011;43707;50.184;18.966;2023-08-21T09:36:09;1.10;;;0.90;;
57889;SDS011;43707;50.184;18.966;2023-08-21T09:38:37;2.40;;;1.10;;
57889;SDS011;43707;50.184;18.966;2023-08-21T09:41:04;1.10;;;1.00;;
57889;SDS011;43707;50.184;18.966;2023-08-21T09:43:29;1.50;;;1.20;;
57889;SDS011;43707;50.184;18.966;2023-08-21T09:45:54;2.30;;;1.30;;
57889;SDS011;43707;50.184;18.966;2023-08-21T09:48:27;1.00;;;1.00;;
57889;SDS011;43707;50.184;18.966;2023-08-21T09:50:52;1.20;;;1.10;;
57889;SDS011;43707;50.184;18.966;2023-08-21T09:53:22;2.00;;;1.30;;
57889;SDS011;43707;50.184;18.966;2023-08-21T09:55:52;1.60;;;1.50;;
57889;SDS011;43707;50.184;18.966;2023-08-21T09:58:19;1.30;;;1.10;;
57889;SDS011;43707;50.184;18.966;2023-08-21T10:00:45;1.40;;;1.20;;
57889;SDS011;43707;50.184;18.966;2023-08-21T10:03:11;1.30;;;1.20;;
57889;SDS011;43707;50.184;18.966;2023-08-21T10:05:38;1.50;;;1.20;;
57889;SDS011;43707;50.184;18.966;2023-08-21T10:08:05;1.40;;;1.20;;
57889;SDS011;43707;50.184;18.966;2023-08-21T10:10:32;1.40;;;1.30;;
57889;SDS011;43707;50.184;18.966;2023-08-21T10:12:59;2.00;;;1.80;;
57889;SDS011;43707;50.184;18.966;2023-08-21T10:15:29;2.90;;;1.60;;
57889;SDS011;43707;50.184;18.966;2023-08-21T10:17:54;1.30;;;1.20;;
57889;SDS011;43707;50.184;18.966;2023-08-21T10:20:22;1.70;;;1.50;;
57889;SDS011;43707;50.184;18.966;2023-08-21T10:22:52;1.80;;;1.30;;
57889;SDS011;43707;50.184;18.966;2023-08-21T10:25:23;1.70;;;1.60;;
57889;SDS011;43707;50.184;18.966;2023-08-21T10:27:57;2.60;;;1.40;;
57889;SDS011;43707;50.184;18.966;2023-08-21T10:30:26;1.90;;;1.70;;
57889;SDS011;43707;50.184;18.966;2023-08-21T10:32:59;2.50;;;1.70;;
57889;SDS011;43707;50.184;18.966;2023-08-21T10:35:28;1.70;;;1.40;;
57889;SDS011;43707;50.184;18.966;2023-08-21T10:38:14;1.20;;;1.10;;
57889;SDS011;43707;50.184;18.966;2023-08-21T10:43:39;1.20;;;1.00;;
57889;SDS011;43707;50.184;18.966;2023-08-21T10:46:09;1.60;;;1.40;;
57889;SDS011;43707;50.184;18.966;2023-08-21T10:48:35;1.10;;;1.00;;
57889;SDS011;43707;50.184;18.966;2023-08-21T10:51:02;1.10;;;1.10;;
57889;SDS011;43707;50.184;18.966;2023-08-21T10:53:30;1.30;;;1.10;;
57889;SDS011;43707;50.184;18.966;2023-08-21T10:55:56;1.40;;;1.20;;
57889;SDS011;43707;50.184;18.966;2023-08-21T10:58:22;1.10;;;1.00;;
57889;SDS011;43707;50.184;18.966;2023-08-21T11:01:00;1.40;;;1.30;;
57889;SDS011;43707;50.184;18.966;2023-08-21T11:03:26;1.90;;;1.40;;
57889;SDS011;43707;50.184;18.966;2023-08-21T11:06:04;1.80;;;1.50;;
57889;SDS011;43707;50.184;18.966;2023-08-21T11:08:33;2.20;;;1.40;;
57889;SDS011;43707;50.184;18.966;2023-08-21T11:11:00;3.40;;;1.30;;
57889;SDS011;43707;50.184;18.966;2023-08-21T11:13:26;1.20;;;1.10;;
57889;SDS011;43707;50.184;18.966;2023-08-21T11:15:58;1.10;;;1.00;;
57889;SDS011;43707;50.184;18.966;2023-08-21T11:18:35;1.40;;;1.10;;
57889;SDS011;43707;50.184;18.966;2023-08-21T11:21:06;1.10;;;1.00;;
57889;SDS011;43707;50.184;18.966;2023-08-21T11:23:37;1.20;;;1.10;;
57889;SDS011;43707;50.184;18.966;2023-08-21T11:26:04;1.00;;;0.80;;
57889;SDS011;43707;50.184;18.966;2023-08-21T11:28:30;1.10;;;1.10;;
57889;SDS011;43707;50.184;18.966;2023-08-21T11:30:56;1.10;;;1.00;;
57889;SDS011;43707;50.184;18.966;2023-08-21T11:33:23;1.30;;;1.10;;
57889;SDS011;43707;50.184;18.966;2023-08-21T11:35:49;1.50;;;1.40;;
57889;SDS011;43707;50.184;18.966;2023-08-21T11:38:18;4.60;;;1.30;;
57889;SDS011;43707;50.184;18.966;2023-08-21T11:41:06;3.10;;;2.80;;
57889;SDS011;43707;50.184;18.966;2023-08-21T11:46:03;6.00;;;4.20;;
57889;SDS011;43707;50.184;18.966;2023-08-21T11:48:30;7.70;;;5.30;;
57889;SDS011;43707;50.184;18.966;2023-08-21T11:50:55;6.30;;;4.90;;
57889;SDS011;43707;50.184;18.966;2023-08-21T11:53:40;6.10;;;4.70;;
57889;SDS011;43707;50.184;18.966;2023-08-21T11:56:10;5.40;;;3.90;;
57889;SDS011;43707;50.184;18.966;2023-08-21T11:58:41;4.00;;;3.60;;
57889;SDS011;43707;50.184;18.966;2023-08-21T12:01:07;3.00;;;2.80;;
57889;SDS011;43707;50.184;18.966;2023-08-21T12:03:38;3.40;;;3.10;;
57889;SDS011;43707;50.184;18.966;2023-08-21T12:06:07;2.60;;;2.40;;
57889;SDS011;43707;50.184;18.966;2023-08-21T12:08:33;2.70;;;2.50;;
57889;SDS011;43707;50.184;18.966;2023-08-21T12:10:59;2.60;;;2.00;;
57889;SDS011;43707;50.184;18.966;2023-08-21T12:13:24;2.10;;;1.90;;
57889;SDS011;43707;50.184;18.966;2023-08-21T12:15:50;2.10;;;1.80;;
57889;SDS011;43707;50.184;18.966;2023-08-21T12:18:15;2.20;;;2.00;;
57889;SDS011;43707;50.184;18.966;2023-08-21T12:20:41;1.80;;;1.40;;
57889;SDS011;43707;50.184;18.966;2023-08-21T12:23:07;2.20;;;2.00;;
57889;SDS011;43707;50.184;18.966;2023-08-21T12:25:33;1.60;;;1.50;;
57889;SDS011;43707;50.184;18.966;2023-08-21T12:27:58;1.70;;;1.60;;
57889;SDS011;43707;50.184;18.966;2023-08-21T12:30:23;1.60;;;1.50;;
57889;SDS011;43707;50.184;18.966;2023-08-21T12:32:50;1.70;;;1.60;;
57889;SDS011;43707;50.184;18.966;2023-08-21T12:35:15;1.50;;;1.40;;
57889;SDS011;43707;50.184;18.966;2023-08-21T12:37:40;1.60;;;1.30;;
57889;SDS011;43707;50.184;18.966;2023-08-21T12:40:06;1.60;;;1.40;;
57889;SDS011;43707;50.184;18.966;2023-08-21T12:42:32;1.40;;;1.30;;
57889;SDS011;43707;50.184;18.966;2023-08-21T12:44:58;1.70;;;1.60;;
57889;SDS011;43707;50.184;18.966;2023-08-21T12:47:23;1.40;;;1.30;;
57889;SDS011;43707;50.184;18.966;2023-08-21T12:49:48;1.50;;;1.40;;
57889;SDS011;43707;50.184;18.966;2023-08-21T12:52:14;1.70;;;1.10;;
57889;SDS011;43707;50.184;18.966;2023-08-21T12:54:39;1.20;;;1.10;;
57889;SDS011;43707;50.184;18.966;2023-08-21T12:57:04;1.20;;;1.00;;
57889;SDS011;43707;50.184;18.966;2023-08-21T12:59:31;1.20;;;1.10;;
57889;SDS011;43707;50.184;18.966;2023-08-21T13:01:58;1.50;;;1.40;;
57889;SDS011;43707;50.184;18.966;2023-08-21T13:04:25;1.20;;;1.10;;
57889;SDS011;43707;50.184;18.966;2023-08-21T13:06:50;1.00;;;1.00;;
57889;SDS011;43707;50.184;18.966;2023-08-21T13:09:16;1.00;;;1.00;;
57889;SDS011;43707;50.184;18.966;2023-08-21T13:11:41;1.30;;;1.20;;
57889;SDS011;43707;50.184;18.966;2023-08-21T13:14:06;1.30;;;1.20;;
57889;SDS011;43707;50.184;18.966;2023-08-21T13:16:32;3.00;;;1.20;;
57889;SDS011;43707;50.184;18.966;2023-08-21T13:18:57;1.40;;;0.90;;
57889;SDS011;43707;50.184;18.966;2023-08-21T13:21:22;1.00;;;0.80;;
57889;SDS011;43707;50.184;18.966;2023-08-21T13:23:48;0.90;;;0.70;;
57889;SDS011;43707;50.184;18.966;2023-08-21T13:26:13;0.60;;;0.60;;
57889;SDS011;43707;50.184;18.966;2023-08-21T13:28:39;0.60;;;0.60;;
57889;SDS011;43707;50.184;18.966;2023-08-21T13:31:04;0.40;;;0.40;;
57889;SDS011;43707;50.184;18.966;2023-08-21T13:33:32;0.40;;;0.40;;
57889;SDS011;43707;50.184;18.966;2023-08-21T13:35:58;0.50;;;0.50;;
57889;SDS011;43707;50.184;18.966;2023-08-21T13:38:23;0.30;;;0.30;;
57889;SDS011;43707;50.184;18.966;2023-08-21T13:40:48;0.30;;;0.30;;
57889;SDS011;43707;50.184;18.966;2023-08-21T13:43:14;0.40;;;0.40;;
57889;SDS011;43707;50.184;18.966;2023-08-21T13:45:39;0.30;;;0.30;;
57889;SDS011;43707;50.184;18.966;2023-08-21T13:48:05;0.30;;;0.30;;
57889;SDS011;43707;50.184;18.966;2023-08-21T13:50:30;0.50;;;0.50;;
57889;SDS011;43707;50.184;18.966;2023-08-21T13:52:56;0.50;;;0.50;;
57889;SDS011;43707;50.184;18.966;2023-08-21T13:55:22;0.40;;;0.40;;
57889;SDS011;43707;50.184;18.966;2023-08-21T13:57:48;0.50;;;0.50;;
57889;SDS011;43707;50.184;18.966;2023-08-21T14:00:13;0.40;;;0.40;;
57889;SDS011;43707;50.184;18.966;2023-08-21T14:02:41;0.30;;;0.30;;
57889;SDS011;43707;50.184;18.966;2023-08-21T14:05:07;0.30;;;0.30;;
57889;SDS011;43707;50.184;18.966;2023-08-21T14:07:33;0.40;;;0.40;;
57889;SDS011;43707;50.184;18.966;2023-08-21T14:09:59;0.20;;;0.20;;
57889;SDS011;43707;50.184;18.966;2023-08-21T14:12:27;0.30;;;0.30;;
57889;SDS011;43707;50.184;18.966;2023-08-21T14:14:54;0.70;;;0.30;;
57889;SDS011;43707;50.184;18.966;2023-08-21T14:17:19;0.20;;;0.20;;
57889;SDS011;43707;50.184;18.966;2023-08-21T14:19:44;0.40;;;0.40;;
57889;SDS011;43707;50.184;18.966;2023-08-21T14:22:10;0.30;;;0.30;;
57889;SDS011;43707;50.184;18.966;2023-08-21T14:24:35;0.40;;;0.40;;
57889;SDS011;43707;50.184;18.966;2023-08-21T14:27:00;0.60;;;0.60;;